sensor_id;sensor_type;location;lat;lon;timestamp;P1;durP1;ratioP1;P2;durP2;ratioP2
65665;SDS011;52365;47.464;18.976;2023-04-29T00:00:08;24.30;;;10.65;;
65665;SDS011;52365;47.464;18.976;2023-04-29T00:00:30;25.60;;;10.68;;
65665;SDS011;52365;47.464;18.976;2023-04-29T00:00:51;24.58;;;10.10;;
65665;SDS011;52365;47.464;18.976;2023-04-29T00:01:13;26.73;;;10.57;;
65665;SDS011;52365;47.464;18.976;2023-04-29T00:01:34;25.40;;;10.48;;
65665;SDS011;52365;47.464;18.976;2023-04-29T00:01:55;26.25;;;10.70;;
65665;SDS011;52365;47.464;18.976;2023-04-29T00:02:18;25.62;;;10.70;;
65665;SDS011;52365;47.464;18.976;2023-04-29T00:02:39;26.17;;;10.15;;
65665;SDS011;52365;47.464;18.976;2023-04-29T00:03:00;24.00;;;10.30;;
65665;SDS011;52365;47.464;18.976;2023-04-29T00:03:21;24.50;;;10.38;;
65665;SDS011;52365;47.464;18.976;2023-04-29T00:03:42;23.62;;;10.02;;
65665;SDS011;52365;47.464;18.976;2023-04-29T00:04:04;23.55;;;10.18;;
65665;SDS011;52365;47.464;18.976;2023-04-29T00:04:25;22.33;;;10.07;;
65665;SDS011;52365;47.464;18.976;2023-04-29T00:04:46;25.95;;;10.57;;
65665;SDS011;52365;47.464;18.976;2023-04-29T00:05:02;26.62;;;10.40;;
65665;SDS011;52365;47.464;18.976;2023-04-29T00:05:24;25.70;;;10.35;;
65665;SDS011;52365;47.464;18.976;2023-04-29T00:05:45;20.83;;;9.70;;
65665;SDS011;52365;47.464;18.976;2023-04-29T00:06:06;22.37;;;9.82;;
65665;SDS011;52365;47.464;18.976;2023-04-29T00:06:27;20.80;;;9.52;;
65665;SDS011;52365;47.464;18.976;2023-04-29T00:06:48;22.73;;;10.10;;
65665;SDS011;52365;47.464;18.976;2023-04-29T00:07:09;22.37;;;9.88;;
65665;SDS011;52365;47.464;18.976;2023-04-29T00:07:34;25.98;;;10.18;;
65665;SDS011;52365;47.464;18.976;2023-04-29T00:07:56;23.10;;;9.65;;
65665;SDS011;52365;47.464;18.976;2023-04-29T00:08:17;20.35;;;9.43;;
65665;SDS011;52365;47.464;18.976;2023-04-29T00:08:38;23.40;;;9.93;;
65665;SDS011;52365;47.464;18.976;2023-04-29T00:08:59;24.98;;;9.77;;
65665;SDS011;52365;47.464;18.976;2023-04-29T00:09:20;22.67;;;10.07;;
65665;SDS011;52365;47.464;18.976;2023-04-29T00:09:42;21.08;;;9.77;;
65665;SDS011;52365;47.464;18.976;2023-04-29T00:10:03;22.25;;;9.23;;
65665;SDS011;52365;47.464;18.976;2023-04-29T00:10:25;23.52;;;10.43;;
65665;SDS011;52365;47.464;18.976;2023-04-29T00:10:46;24.23;;;10.73;;
65665;SDS011;52365;47.464;18.976;2023-04-29T00:11:07;23.35;;;10.50;;
65665;SDS011;52365;47.464;18.976;2023-04-29T00:11:27;21.62;;;10.10;;
65665;SDS011;52365;47.464;18.976;2023-04-29T00:11:48;22.90;;;10.23;;
65665;SDS011;52365;47.464;18.976;2023-04-29T00:12:10;23.55;;;9.60;;
65665;SDS011;52365;47.464;18.976;2023-04-29T00:12:31;23.75;;;10.18;;
65665;SDS011;52365;47.464;18.976;2023-04-29T00:12:53;22.80;;;10.38;;
65665;SDS011;52365;47.464;18.976;2023-04-29T00:13:14;22.37;;;10.10;;
65665;SDS011;52365;47.464;18.976;2023-04-29T00:13:35;24.00;;;10.00;;
65665;SDS011;52365;47.464;18.976;2023-04-29T00:13:56;22.95;;;10.38;;
65665;SDS011;52365;47.464;18.976;2023-04-29T00:14:17;23.83;;;10.27;;
65665;SDS011;52365;47.464;18.976;2023-04-29T00:14:38;23.92;;;10.18;;
65665;SDS011;52365;47.464;18.976;2023-04-29T00:14:59;23.40;;;10.02;;
65665;SDS011;52365;47.464;18.976;2023-04-29T00:15:22;25.33;;;10.13;;
65665;SDS011;52365;47.464;18.976;2023-04-29T00:15:43;22.98;;;9.90;;
65665;SDS011;52365;47.464;18.976;2023-04-29T00:16:04;21.50;;;9.75;;
65665;SDS011;52365;47.464;18.976;2023-04-29T00:16:26;22.52;;;9.65;;
65665;SDS011;52365;47.464;18.976;2023-04-29T00:16:47;23.30;;;9.43;;
65665;SDS011;52365;47.464;18.976;2023-04-29T00:17:08;21.35;;;9.80;;
65665;SDS011;52365;47.464;18.976;2023-04-29T00:17:29;21.80;;;9.70;;
65665;SDS011;52365;47.464;18.976;2023-04-29T00:17:50;20.80;;;9.82;;
65665;SDS011;52365;47.464;18.976;2023-04-29T00:18:11;19.60;;;9.73;;
65665;SDS011;52365;47.464;18.976;2023-04-29T00:18:33;20.80;;;9.60;;
65665;SDS011;52365;47.464;18.976;2023-04-29T00:18:54;23.92;;;9.95;;
65665;SDS011;52365;47.464;18.976;2023-04-29T00:19:16;23.87;;;9.13;;
65665;SDS011;52365;47.464;18.976;2023-04-29T00:19:37;22.00;;;9.23;;
65665;SDS011;52365;47.464;18.976;2023-04-29T00:19:58;21.55;;;9.15;;
65665;SDS011;52365;47.464;18.976;2023-04-29T00:20:19;21.25;;;9.70;;
65665;SDS011;52365;47.464;18.976;2023-04-29T00:20:41;21.37;;;9.45;;
65665;SDS011;52365;47.464;18.976;2023-04-29T00:21:02;22.73;;;9.57;;
65665;SDS011;52365;47.464;18.976;2023-04-29T00:21:26;21.25;;;9.75;;
65665;SDS011;52365;47.464;18.976;2023-04-29T00:21:48;21.12;;;9.32;;
65665;SDS011;52365;47.464;18.976;2023-04-29T00:22:09;21.33;;;9.73;;
65665;SDS011;52365;47.464;18.976;2023-04-29T00:22:30;21.45;;;9.57;;
65665;SDS011;52365;47.464;18.976;2023-04-29T00:22:51;19.58;;;8.85;;
65665;SDS011;52365;47.464;18.976;2023-04-29T00:23:12;19.95;;;9.00;;
65665;SDS011;52365;47.464;18.976;2023-04-29T00:23:33;20.77;;;9.07;;
65665;SDS011;52365;47.464;18.976;2023-04-29T00:23:54;19.10;;;8.90;;
65665;SDS011;52365;47.464;18.976;2023-04-29T00:24:16;19.23;;;9.00;;
65665;SDS011;52365;47.464;18.976;2023-04-29T00:24:37;20.80;;;9.18;;
65665;SDS011;52365;47.464;18.976;2023-04-29T00:24:58;18.60;;;9.32;;
65665;SDS011;52365;47.464;18.976;2023-04-29T00:25:18;18.85;;;8.88;;
65665;SDS011;52365;47.464;18.976;2023-04-29T00:25:40;18.52;;;8.52;;
65665;SDS011;52365;47.464;18.976;2023-04-29T00:26:01;17.55;;;8.45;;
65665;SDS011;52365;47.464;18.976;2023-04-29T00:26:22;18.52;;;8.82;;
65665;SDS011;52365;47.464;18.976;2023-04-29T00:26:43;19.70;;;8.93;;
65665;SDS011;52365;47.464;18.976;2023-04-29T00:27:04;20.27;;;9.13;;
65665;SDS011;52365;47.464;18.976;2023-04-29T00:27:26;19.17;;;9.32;;
65665;SDS011;52365;47.464;18.976;2023-04-29T00:27:47;19.62;;;9.10;;
65665;SDS011;52365;47.464;18.976;2023-04-29T00:28:08;20.77;;;9.38;;
65665;SDS011;52365;47.464;18.976;2023-04-29T00:28:29;19.98;;;9.10;;
65665;SDS011;52365;47.464;18.976;2023-04-29T00:28:50;18.05;;;8.68;;
65665;SDS011;52365;47.464;18.976;2023-04-29T00:29:11;19.05;;;8.68;;
65665;SDS011;52365;47.464;18.976;2023-04-29T00:29:32;18.62;;;8.70;;
65665;SDS011;52365;47.464;18.976;2023-04-29T00:29:53;18.85;;;8.95;;
65665;SDS011;52365;47.464;18.976;2023-04-29T00:30:14;17.65;;;8.52;;
65665;SDS011;52365;47.464;18.976;2023-04-29T00:30:35;16.55;;;8.48;;
65665;SDS011;52365;47.464;18.976;2023-04-29T00:30:56;19.15;;;9.05;;
65665;SDS011;52365;47.464;18.976;2023-04-29T00:31:18;20.40;;;9.10;;
65665;SDS011;52365;47.464;18.976;2023-04-29T00:31:39;18.40;;;9.02;;
65665;SDS011;52365;47.464;18.976;2023-04-29T00:32:00;17.52;;;9.05;;
65665;SDS011;52365;47.464;18.976;2023-04-29T00:32:21;17.42;;;8.90;;
65665;SDS011;52365;47.464;18.976;2023-04-29T00:32:42;17.08;;;8.98;;
65665;SDS011;52365;47.464;18.976;2023-04-29T00:33:04;17.37;;;9.13;;
65665;SDS011;52365;47.464;18.976;2023-04-29T00:33:25;17.37;;;9.07;;
65665;SDS011;52365;47.464;18.976;2023-04-29T00:33:41;18.60;;;8.85;;
65665;SDS011;52365;47.464;18.976;2023-04-29T00:34:02;21.55;;;8.88;;
65665;SDS011;52365;47.464;18.976;2023-04-29T00:34:23;20.37;;;9.40;;
65665;SDS011;52365;47.464;18.976;2023-04-29T00:34:45;18.77;;;9.32;;
65665;SDS011;52365;47.464;18.976;2023-04-29T00:35:06;19.75;;;9.18;;
65665;SDS011;52365;47.464;18.976;2023-04-29T00:35:27;18.67;;;8.88;;
65665;SDS011;52365;47.464;18.976;2023-04-29T00:35:48;19.50;;;9.27;;
65665;SDS011;52365;47.464;18.976;2023-04-29T00:36:09;18.77;;;9.35;;
65665;SDS011;52365;47.464;18.976;2023-04-29T00:36:30;18.35;;;9.45;;
65665;SDS011;52365;47.464;18.976;2023-04-29T00:36:52;19.00;;;9.70;;
65665;SDS011;52365;47.464;18.976;2023-04-29T00:37:12;18.87;;;9.45;;
65665;SDS011;52365;47.464;18.976;2023-04-29T00:37:33;16.95;;;9.20;;
65665;SDS011;52365;47.464;18.976;2023-04-29T00:37:54;20.12;;;9.10;;
65665;SDS011;52365;47.464;18.976;2023-04-29T00:38:15;19.27;;;9.40;;
65665;SDS011;52365;47.464;18.976;2023-04-29T00:38:36;18.10;;;9.18;;
65665;SDS011;52365;47.464;18.976;2023-04-29T00:38:57;19.52;;;9.43;;
65665;SDS011;52365;47.464;18.976;2023-04-29T00:39:19;20.95;;;9.38;;
65665;SDS011;52365;47.464;18.976;2023-04-29T00:39:40;19.58;;;9.20;;
65665;SDS011;52365;47.464;18.976;2023-04-29T00:40:01;16.95;;;8.85;;
65665;SDS011;52365;47.464;18.976;2023-04-29T00:40:22;17.15;;;9.13;;
65665;SDS011;52365;47.464;18.976;2023-04-29T00:40:43;16.50;;;9.32;;
65665;SDS011;52365;47.464;18.976;2023-04-29T00:41:04;17.62;;;8.98;;
65665;SDS011;52365;47.464;18.976;2023-04-29T00:41:25;18.85;;;9.18;;
65665;SDS011;52365;47.464;18.976;2023-04-29T00:41:46;17.33;;;8.85;;
65665;SDS011;52365;47.464;18.976;2023-04-29T00:42:08;18.80;;;9.20;;
65665;SDS011;52365;47.464;18.976;2023-04-29T00:42:30;17.50;;;8.65;;
65665;SDS011;52365;47.464;18.976;2023-04-29T00:42:54;18.80;;;9.10;;
65665;SDS011;52365;47.464;18.976;2023-04-29T00:43:15;17.00;;;9.23;;
65665;SDS011;52365;47.464;18.976;2023-04-29T00:43:36;17.02;;;9.13;;
65665;SDS011;52365;47.464;18.976;2023-04-29T00:43:57;18.35;;;9.02;;
65665;SDS011;52365;47.464;18.976;2023-04-29T00:44:18;18.15;;;8.90;;
65665;SDS011;52365;47.464;18.976;2023-04-29T00:44:39;15.93;;;8.48;;
65665;SDS011;52365;47.464;18.976;2023-04-29T00:45:00;18.42;;;8.43;;
65665;SDS011;52365;47.464;18.976;2023-04-29T00:45:21;19.20;;;8.68;;
65665;SDS011;52365;47.464;18.976;2023-04-29T00:45:43;15.70;;;8.63;;
65665;SDS011;52365;47.464;18.976;2023-04-29T00:46:06;15.02;;;8.70;;
65665;SDS011;52365;47.464;18.976;2023-04-29T00:46:27;15.30;;;8.40;;
65665;SDS011;52365;47.464;18.976;2023-04-29T00:46:48;15.77;;;9.00;;
65665;SDS011;52365;47.464;18.976;2023-04-29T00:47:09;15.52;;;8.70;;
65665;SDS011;52365;47.464;18.976;2023-04-29T00:47:31;17.62;;;8.55;;
65665;SDS011;52365;47.464;18.976;2023-04-29T00:47:52;16.65;;;8.38;;
65665;SDS011;52365;47.464;18.976;2023-04-29T00:48:13;16.25;;;8.60;;
65665;SDS011;52365;47.464;18.976;2023-04-29T00:48:35;15.80;;;8.45;;
65665;SDS011;52365;47.464;18.976;2023-04-29T00:48:56;16.08;;;8.20;;
65665;SDS011;52365;47.464;18.976;2023-04-29T00:49:17;16.20;;;8.35;;
65665;SDS011;52365;47.464;18.976;2023-04-29T00:49:39;15.20;;;8.07;;
65665;SDS011;52365;47.464;18.976;2023-04-29T00:50:00;15.05;;;8.40;;
65665;SDS011;52365;47.464;18.976;2023-04-29T00:50:21;15.27;;;8.63;;
65665;SDS011;52365;47.464;18.976;2023-04-29T00:50:42;17.92;;;8.88;;
65665;SDS011;52365;47.464;18.976;2023-04-29T00:51:03;17.15;;;8.73;;
65665;SDS011;52365;47.464;18.976;2023-04-29T00:51:25;17.00;;;8.35;;
65665;SDS011;52365;47.464;18.976;2023-04-29T00:51:46;16.92;;;8.48;;
65665;SDS011;52365;47.464;18.976;2023-04-29T00:52:08;15.55;;;8.48;;
65665;SDS011;52365;47.464;18.976;2023-04-29T00:52:31;15.98;;;8.25;;
65665;SDS011;52365;47.464;18.976;2023-04-29T00:52:52;15.73;;;8.50;;
65665;SDS011;52365;47.464;18.976;2023-04-29T00:53:13;16.50;;;8.35;;
65665;SDS011;52365;47.464;18.976;2023-04-29T00:53:34;16.75;;;8.35;;
65665;SDS011;52365;47.464;18.976;2023-04-29T00:53:55;15.25;;;8.07;;
65665;SDS011;52365;47.464;18.976;2023-04-29T00:54:16;14.48;;;8.15;;
65665;SDS011;52365;47.464;18.976;2023-04-29T00:54:38;14.98;;;8.30;;
65665;SDS011;52365;47.464;18.976;2023-04-29T00:55:00;15.68;;;8.35;;
65665;SDS011;52365;47.464;18.976;2023-04-29T00:55:22;17.17;;;8.52;;
65665;SDS011;52365;47.464;18.976;2023-04-29T00:55:44;15.93;;;8.30;;
65665;SDS011;52365;47.464;18.976;2023-04-29T00:56:07;16.40;;;8.05;;
65665;SDS011;52365;47.464;18.976;2023-04-29T00:56:28;16.33;;;8.25;;
65665;SDS011;52365;47.464;18.976;2023-04-29T00:56:51;16.12;;;8.32;;
65665;SDS011;52365;47.464;18.976;2023-04-29T00:57:14;16.30;;;8.43;;
65665;SDS011;52365;47.464;18.976;2023-04-29T00:57:35;15.90;;;8.20;;
65665;SDS011;52365;47.464;18.976;2023-04-29T00:57:56;16.33;;;7.85;;
65665;SDS011;52365;47.464;18.976;2023-04-29T00:58:17;14.48;;;7.57;;
65665;SDS011;52365;47.464;18.976;2023-04-29T00:58:40;15.55;;;8.05;;
65665;SDS011;52365;47.464;18.976;2023-04-29T00:59:09;13.80;;;7.87;;
65665;SDS011;52365;47.464;18.976;2023-04-29T00:59:32;14.10;;;8.00;;
65665;SDS011;52365;47.464;18.976;2023-04-29T00:59:54;14.18;;;8.05;;
65665;SDS011;52365;47.464;18.976;2023-04-29T01:00:17;17.12;;;7.60;;
65665;SDS011;52365;47.464;18.976;2023-04-29T01:00:38;15.23;;;7.78;;
65665;SDS011;52365;47.464;18.976;2023-04-29T01:01:01;15.27;;;7.95;;
65665;SDS011;52365;47.464;18.976;2023-04-29T01:01:26;13.52;;;7.87;;
65665;SDS011;52365;47.464;18.976;2023-04-29T01:01:47;14.73;;;7.45;;
65665;SDS011;52365;47.464;18.976;2023-04-29T01:02:08;14.25;;;7.78;;
65665;SDS011;52365;47.464;18.976;2023-04-29T01:02:29;15.02;;;7.62;;
65665;SDS011;52365;47.464;18.976;2023-04-29T01:02:51;15.57;;;7.82;;
65665;SDS011;52365;47.464;18.976;2023-04-29T01:03:13;12.77;;;7.50;;
65665;SDS011;52365;47.464;18.976;2023-04-29T01:03:35;13.80;;;7.45;;
65665;SDS011;52365;47.464;18.976;2023-04-29T01:03:56;15.57;;;7.50;;
65665;SDS011;52365;47.464;18.976;2023-04-29T01:04:18;16.25;;;7.65;;
65665;SDS011;52365;47.464;18.976;2023-04-29T01:04:39;15.73;;;7.75;;
65665;SDS011;52365;47.464;18.976;2023-04-29T01:05:00;12.68;;;7.60;;
65665;SDS011;52365;47.464;18.976;2023-04-29T01:05:24;13.80;;;7.97;;
65665;SDS011;52365;47.464;18.976;2023-04-29T01:05:45;13.82;;;7.75;;
65665;SDS011;52365;47.464;18.976;2023-04-29T01:07:00;14.15;;;7.95;;
65665;SDS011;52365;47.464;18.976;2023-04-29T01:09:44;14.82;;;7.28;;
65665;SDS011;52365;47.464;18.976;2023-04-29T01:10:21;12.60;;;7.00;;
65665;SDS011;52365;47.464;18.976;2023-04-29T01:10:52;13.82;;;6.82;;
65665;SDS011;52365;47.464;18.976;2023-04-29T01:11:15;13.75;;;6.55;;
65665;SDS011;52365;47.464;18.976;2023-04-29T01:13:16;12.10;;;6.62;;
65665;SDS011;52365;47.464;18.976;2023-04-29T01:13:50;13.38;;;6.97;;
65665;SDS011;52365;47.464;18.976;2023-04-29T01:14:19;11.32;;;6.53;;
65665;SDS011;52365;47.464;18.976;2023-04-29T01:14:42;12.90;;;6.87;;
65665;SDS011;52365;47.464;18.976;2023-04-29T01:15:15;12.52;;;6.40;;
65665;SDS011;52365;47.464;18.976;2023-04-29T01:15:46;12.37;;;6.28;;
65665;SDS011;52365;47.464;18.976;2023-04-29T01:16:36;14.15;;;6.65;;
65665;SDS011;52365;47.464;18.976;2023-04-29T01:17:10;13.02;;;6.93;;
65665;SDS011;52365;47.464;18.976;2023-04-29T01:17:39;11.60;;;6.80;;
65665;SDS011;52365;47.464;18.976;2023-04-29T01:18:04;12.48;;;6.62;;
65665;SDS011;52365;47.464;18.976;2023-04-29T01:18:54;11.80;;;6.85;;
65665;SDS011;52365;47.464;18.976;2023-04-29T01:19:47;14.10;;;7.22;;
65665;SDS011;52365;47.464;18.976;2023-04-29T01:20:11;11.77;;;6.80;;
65665;SDS011;52365;47.464;18.976;2023-04-29T01:20:33;12.68;;;6.87;;
65665;SDS011;52365;47.464;18.976;2023-04-29T01:20:55;13.10;;;6.70;;
65665;SDS011;52365;47.464;18.976;2023-04-29T01:21:19;13.07;;;6.65;;
65665;SDS011;52365;47.464;18.976;2023-04-29T01:21:47;12.50;;;7.05;;
65665;SDS011;52365;47.464;18.976;2023-04-29T01:22:08;12.35;;;6.65;;
65665;SDS011;52365;47.464;18.976;2023-04-29T01:22:29;13.05;;;7.05;;
65665;SDS011;52365;47.464;18.976;2023-04-29T01:22:50;13.75;;;7.25;;
65665;SDS011;52365;47.464;18.976;2023-04-29T01:23:12;13.48;;;7.00;;
65665;SDS011;52365;47.464;18.976;2023-04-29T01:23:33;13.73;;;7.18;;
65665;SDS011;52365;47.464;18.976;2023-04-29T01:23:54;10.93;;;6.80;;
65665;SDS011;52365;47.464;18.976;2023-04-29T01:24:17;15.70;;;7.20;;
65665;SDS011;52365;47.464;18.976;2023-04-29T01:24:39;14.20;;;6.82;;
65665;SDS011;52365;47.464;18.976;2023-04-29T01:25:00;12.48;;;6.93;;
65665;SDS011;52365;47.464;18.976;2023-04-29T01:25:21;12.45;;;6.82;;
65665;SDS011;52365;47.464;18.976;2023-04-29T01:25:42;12.55;;;6.75;;
65665;SDS011;52365;47.464;18.976;2023-04-29T01:26:03;12.20;;;7.10;;
65665;SDS011;52365;47.464;18.976;2023-04-29T01:26:25;12.53;;;6.73;;
65665;SDS011;52365;47.464;18.976;2023-04-29T01:26:56;14.73;;;7.00;;
65665;SDS011;52365;47.464;18.976;2023-04-29T01:27:32;14.55;;;6.80;;
65665;SDS011;52365;47.464;18.976;2023-04-29T01:28:13;13.82;;;7.40;;
65665;SDS011;52365;47.464;18.976;2023-04-29T01:29:32;14.65;;;7.07;;
65665;SDS011;52365;47.464;18.976;2023-04-29T01:31:10;13.27;;;7.07;;
65665;SDS011;52365;47.464;18.976;2023-04-29T01:31:48;11.68;;;6.68;;
65665;SDS011;52365;47.464;18.976;2023-04-29T01:32:17;13.98;;;7.20;;
65665;SDS011;52365;47.464;18.976;2023-04-29T01:32:52;12.43;;;6.87;;
65665;SDS011;52365;47.464;18.976;2023-04-29T01:33:48;12.90;;;6.62;;
65665;SDS011;52365;47.464;18.976;2023-04-29T01:34:22;13.23;;;7.05;;
65665;SDS011;52365;47.464;18.976;2023-04-29T01:34:57;14.60;;;7.10;;
65665;SDS011;52365;47.464;18.976;2023-04-29T01:36:52;13.35;;;7.10;;
65665;SDS011;52365;47.464;18.976;2023-04-29T01:37:27;12.73;;;7.03;;
65665;SDS011;52365;47.464;18.976;2023-04-29T01:37:56;11.30;;;6.70;;
65665;SDS011;52365;47.464;18.976;2023-04-29T01:38:48;13.10;;;6.25;;
65665;SDS011;52365;47.464;18.976;2023-04-29T01:42:07;11.00;;;6.30;;
65665;SDS011;52365;47.464;18.976;2023-04-29T01:43:01;13.00;;;6.80;;
65665;SDS011;52365;47.464;18.976;2023-04-29T01:43:27;11.75;;;6.37;;
65665;SDS011;52365;47.464;18.976;2023-04-29T01:43:50;12.48;;;6.70;;
65665;SDS011;52365;47.464;18.976;2023-04-29T01:44:15;11.95;;;6.40;;
65665;SDS011;52365;47.464;18.976;2023-04-29T01:44:40;12.23;;;6.60;;
65665;SDS011;52365;47.464;18.976;2023-04-29T01:45:04;12.40;;;6.50;;
65665;SDS011;52365;47.464;18.976;2023-04-29T01:45:28;9.45;;;6.07;;
65665;SDS011;52365;47.464;18.976;2023-04-29T01:45:52;9.23;;;6.12;;
65665;SDS011;52365;47.464;18.976;2023-04-29T01:46:16;10.35;;;6.03;;
65665;SDS011;52365;47.464;18.976;2023-04-29T01:46:40;11.05;;;6.00;;
65665;SDS011;52365;47.464;18.976;2023-04-29T01:47:03;9.20;;;5.85;;
65665;SDS011;52365;47.464;18.976;2023-04-29T01:47:25;9.77;;;6.18;;
65665;SDS011;52365;47.464;18.976;2023-04-29T01:47:46;9.25;;;6.00;;
65665;SDS011;52365;47.464;18.976;2023-04-29T01:48:13;13.23;;;6.70;;
65665;SDS011;52365;47.464;18.976;2023-04-29T01:48:34;13.05;;;6.30;;
65665;SDS011;52365;47.464;18.976;2023-04-29T01:48:57;11.32;;;5.90;;
65665;SDS011;52365;47.464;18.976;2023-04-29T01:49:24;9.95;;;5.90;;
65665;SDS011;52365;47.464;18.976;2023-04-29T01:49:45;10.85;;;5.68;;
65665;SDS011;52365;47.464;18.976;2023-04-29T01:50:06;11.40;;;5.65;;
65665;SDS011;52365;47.464;18.976;2023-04-29T01:50:28;10.10;;;5.65;;
65665;SDS011;52365;47.464;18.976;2023-04-29T01:50:50;10.02;;;5.82;;
65665;SDS011;52365;47.464;18.976;2023-04-29T01:51:11;12.45;;;6.10;;
65665;SDS011;52365;47.464;18.976;2023-04-29T01:51:32;11.40;;;6.15;;
65665;SDS011;52365;47.464;18.976;2023-04-29T01:51:54;10.00;;;5.77;;
65665;SDS011;52365;47.464;18.976;2023-04-29T01:52:15;11.15;;;6.07;;
65665;SDS011;52365;47.464;18.976;2023-04-29T01:52:36;11.50;;;6.28;;
65665;SDS011;52365;47.464;18.976;2023-04-29T01:52:58;11.05;;;5.90;;
65665;SDS011;52365;47.464;18.976;2023-04-29T01:53:18;11.02;;;6.15;;
65665;SDS011;52365;47.464;18.976;2023-04-29T01:53:39;9.77;;;6.03;;
65665;SDS011;52365;47.464;18.976;2023-04-29T01:54:00;10.07;;;5.90;;
65665;SDS011;52365;47.464;18.976;2023-04-29T01:54:22;11.63;;;6.05;;
65665;SDS011;52365;47.464;18.976;2023-04-29T01:54:43;10.55;;;5.70;;
65665;SDS011;52365;47.464;18.976;2023-04-29T01:55:05;10.60;;;5.87;;
65665;SDS011;52365;47.464;18.976;2023-04-29T01:55:27;8.57;;;5.50;;
65665;SDS011;52365;47.464;18.976;2023-04-29T01:55:48;8.57;;;5.55;;
65665;SDS011;52365;47.464;18.976;2023-04-29T01:56:09;9.32;;;5.50;;
65665;SDS011;52365;47.464;18.976;2023-04-29T01:56:30;9.10;;;5.70;;
65665;SDS011;52365;47.464;18.976;2023-04-29T01:56:51;10.45;;;5.90;;
65665;SDS011;52365;47.464;18.976;2023-04-29T01:57:12;12.00;;;5.97;;
65665;SDS011;52365;47.464;18.976;2023-04-29T01:57:33;10.48;;;5.82;;
65665;SDS011;52365;47.464;18.976;2023-04-29T01:57:54;8.70;;;5.40;;
65665;SDS011;52365;47.464;18.976;2023-04-29T01:58:15;9.57;;;5.85;;
65665;SDS011;52365;47.464;18.976;2023-04-29T01:58:36;8.85;;;5.53;;
65665;SDS011;52365;47.464;18.976;2023-04-29T01:58:57;10.35;;;5.47;;
65665;SDS011;52365;47.464;18.976;2023-04-29T01:59:18;11.18;;;5.70;;
65665;SDS011;52365;47.464;18.976;2023-04-29T01:59:39;12.88;;;5.55;;
65665;SDS011;52365;47.464;18.976;2023-04-29T02:00:01;11.10;;;5.43;;
65665;SDS011;52365;47.464;18.976;2023-04-29T02:00:24;9.00;;;5.50;;
65665;SDS011;52365;47.464;18.976;2023-04-29T02:00:45;8.90;;;5.60;;
65665;SDS011;52365;47.464;18.976;2023-04-29T02:01:06;8.75;;;5.10;;
65665;SDS011;52365;47.464;18.976;2023-04-29T02:01:29;7.72;;;4.90;;
65665;SDS011;52365;47.464;18.976;2023-04-29T02:01:51;7.78;;;5.03;;
65665;SDS011;52365;47.464;18.976;2023-04-29T02:02:12;10.27;;;5.28;;
65665;SDS011;52365;47.464;18.976;2023-04-29T02:02:34;10.02;;;5.50;;
65665;SDS011;52365;47.464;18.976;2023-04-29T02:02:55;8.53;;;5.43;;
65665;SDS011;52365;47.464;18.976;2023-04-29T02:03:16;8.80;;;4.95;;
65665;SDS011;52365;47.464;18.976;2023-04-29T02:03:37;8.93;;;5.28;;
65665;SDS011;52365;47.464;18.976;2023-04-29T02:03:59;7.65;;;5.15;;
65665;SDS011;52365;47.464;18.976;2023-04-29T02:04:20;8.75;;;5.12;;
65665;SDS011;52365;47.464;18.976;2023-04-29T02:04:40;9.50;;;5.20;;
65665;SDS011;52365;47.464;18.976;2023-04-29T02:05:02;8.57;;;5.03;;
65665;SDS011;52365;47.464;18.976;2023-04-29T02:05:23;7.90;;;4.97;;
65665;SDS011;52365;47.464;18.976;2023-04-29T02:05:44;8.63;;;5.50;;
65665;SDS011;52365;47.464;18.976;2023-04-29T02:06:05;9.13;;;5.20;;
65665;SDS011;52365;47.464;18.976;2023-04-29T02:06:29;9.60;;;5.40;;
65665;SDS011;52365;47.464;18.976;2023-04-29T02:06:51;7.47;;;5.18;;
65665;SDS011;52365;47.464;18.976;2023-04-29T02:07:12;8.55;;;5.15;;
65665;SDS011;52365;47.464;18.976;2023-04-29T02:07:33;10.35;;;5.20;;
65665;SDS011;52365;47.464;18.976;2023-04-29T02:07:54;10.57;;;5.47;;
65665;SDS011;52365;47.464;18.976;2023-04-29T02:08:16;11.07;;;5.60;;
65665;SDS011;52365;47.464;18.976;2023-04-29T02:08:37;8.15;;;5.50;;
65665;SDS011;52365;47.464;18.976;2023-04-29T02:08:58;8.68;;;5.00;;
65665;SDS011;52365;47.464;18.976;2023-04-29T02:09:19;7.37;;;5.05;;
65665;SDS011;52365;47.464;18.976;2023-04-29T02:09:41;9.32;;;5.85;;
65665;SDS011;52365;47.464;18.976;2023-04-29T02:10:02;9.30;;;5.45;;
65665;SDS011;52365;47.464;18.976;2023-04-29T02:10:23;9.07;;;5.30;;
65665;SDS011;52365;47.464;18.976;2023-04-29T02:10:51;10.70;;;5.57;;
65665;SDS011;52365;47.464;18.976;2023-04-29T02:11:13;9.60;;;5.15;;
65665;SDS011;52365;47.464;18.976;2023-04-29T02:11:34;9.98;;;5.15;;
65665;SDS011;52365;47.464;18.976;2023-04-29T02:11:55;9.85;;;5.32;;
65665;SDS011;52365;47.464;18.976;2023-04-29T02:12:16;10.25;;;5.40;;
65665;SDS011;52365;47.464;18.976;2023-04-29T02:12:37;9.13;;;5.30;;
65665;SDS011;52365;47.464;18.976;2023-04-29T02:12:58;8.65;;;5.10;;
65665;SDS011;52365;47.464;18.976;2023-04-29T02:13:20;8.45;;;5.20;;
65665;SDS011;52365;47.464;18.976;2023-04-29T02:13:41;8.00;;;4.90;;
65665;SDS011;52365;47.464;18.976;2023-04-29T02:14:02;11.23;;;5.28;;
65665;SDS011;52365;47.464;18.976;2023-04-29T02:14:24;11.00;;;5.32;;
65665;SDS011;52365;47.464;18.976;2023-04-29T02:14:45;10.43;;;5.35;;
65665;SDS011;52365;47.464;18.976;2023-04-29T02:15:07;9.30;;;4.87;;
65665;SDS011;52365;47.464;18.976;2023-04-29T02:15:28;10.40;;;5.18;;
65665;SDS011;52365;47.464;18.976;2023-04-29T02:15:49;12.05;;;5.30;;
65665;SDS011;52365;47.464;18.976;2023-04-29T02:16:12;10.10;;;5.12;;
65665;SDS011;52365;47.464;18.976;2023-04-29T02:16:34;9.10;;;4.62;;
65665;SDS011;52365;47.464;18.976;2023-04-29T02:16:55;8.88;;;4.80;;
65665;SDS011;52365;47.464;18.976;2023-04-29T02:17:16;9.95;;;5.30;;
65665;SDS011;52365;47.464;18.976;2023-04-29T02:17:37;9.35;;;5.15;;
65665;SDS011;52365;47.464;18.976;2023-04-29T02:17:58;8.18;;;5.10;;
65665;SDS011;52365;47.464;18.976;2023-04-29T02:18:19;8.93;;;5.10;;
65665;SDS011;52365;47.464;18.976;2023-04-29T02:18:40;8.93;;;5.30;;
65665;SDS011;52365;47.464;18.976;2023-04-29T02:19:01;11.55;;;5.40;;
65665;SDS011;52365;47.464;18.976;2023-04-29T02:19:22;10.02;;;5.15;;
65665;SDS011;52365;47.464;18.976;2023-04-29T02:19:43;8.50;;;5.10;;
65665;SDS011;52365;47.464;18.976;2023-04-29T02:20:04;8.95;;;5.00;;
65665;SDS011;52365;47.464;18.976;2023-04-29T02:20:26;9.77;;;5.15;;
65665;SDS011;52365;47.464;18.976;2023-04-29T02:20:47;9.55;;;4.97;;
65665;SDS011;52365;47.464;18.976;2023-04-29T02:21:10;9.98;;;4.90;;
65665;SDS011;52365;47.464;18.976;2023-04-29T02:21:31;9.82;;;5.20;;
65665;SDS011;52365;47.464;18.976;2023-04-29T02:21:54;10.98;;;5.00;;
65665;SDS011;52365;47.464;18.976;2023-04-29T02:22:15;7.82;;;4.80;;
65665;SDS011;52365;47.464;18.976;2023-04-29T02:22:36;8.50;;;5.15;;
65665;SDS011;52365;47.464;18.976;2023-04-29T02:22:57;9.05;;;5.10;;
65665;SDS011;52365;47.464;18.976;2023-04-29T02:23:18;10.18;;;4.68;;
65665;SDS011;52365;47.464;18.976;2023-04-29T02:23:39;11.90;;;4.87;;
65665;SDS011;52365;47.464;18.976;2023-04-29T02:24:01;8.40;;;4.85;;
65665;SDS011;52365;47.464;18.976;2023-04-29T02:24:22;7.80;;;4.72;;
65665;SDS011;52365;47.464;18.976;2023-04-29T02:24:43;9.32;;;5.10;;